createdAt,value
2022-09-05T00:00:04.107Z,101318.72
2022-09-05T00:02:48.776Z,101323.19
2022-09-05T00:05:36.403Z,101321.81
2022-09-05T00:08:16.425Z,101321.44
2022-09-05T00:11:40.626Z,101328.22
2022-09-05T00:13:40.019Z,101324.78
2022-09-05T00:16:32.218Z,101319.81
2022-09-05T00:24:22.491Z,101318.38
2022-09-05T00:24:29.055Z,101324.75
2022-09-05T00:25:38.543Z,101329.88
2022-09-05T00:28:25.837Z,101323.78
2022-09-05T00:31:55.646Z,101321.16
2022-09-05T00:34:22.260Z,101325.34
2022-09-05T00:36:53.671Z,101331.03
2022-09-05T00:39:24.021Z,101328.19
2022-09-05T00:41:53.419Z,101325.13
2022-09-05T00:44:24.537Z,101326.31
2022-09-05T00:46:57.979Z,101323.81
2022-09-05T00:49:30.191Z,101320.63
2022-09-05T00:52:02.050Z,101319.31
2022-09-05T00:54:57.042Z,101318.16
2022-09-05T00:57:40.323Z,101320.63
2022-09-05T01:00:17.596Z,101317.38
2022-09-05T01:03:26.636Z,101317.06
2022-09-05T01:06:17.571Z,101315.59
2022-09-05T01:09:09.255Z,101313.28
2022-09-05T01:11:54.061Z,101318.25
2022-09-05T01:14:32.102Z,101313.34
2022-09-05T01:17:09.871Z,101315.88
2022-09-05T01:19:52.188Z,101315.34
2022-09-05T01:22:40.058Z,101307.44
2022-09-05T01:25:16.456Z,101309.88
2022-09-05T01:29:16.717Z,101317.91
2022-09-05T01:30:42.980Z,101315.75
2022-09-05T01:33:20.920Z,101307.34
2022-09-05T01:36:22.654Z,101319.66
2022-09-05T01:39:45.524Z,101308.16
2022-09-05T01:41:53.290Z,101303.84
2022-09-05T01:44:31.798Z,101313.72
2022-09-05T01:47:10.543Z,101306.13
2022-09-05T01:49:47.390Z,101307.66
2022-09-05T01:52:26.023Z,101309.28
2022-09-05T01:55:07.544Z,101313.56
2022-09-05T01:57:41.348Z,101309.28
2022-09-05T02:00:13.410Z,101304.06
2022-09-05T02:02:53.122Z,101298.72
2022-09-05T02:05:48.942Z,101302.28
2022-09-05T02:08:47.899Z,101303.94
2022-09-05T02:11:36.166Z,101306.53
2022-09-05T02:14:09.449Z,101300.63
2022-09-05T02:16:44.720Z,101295.75
2022-09-05T02:19:18.005Z,101307.88
2022-09-05T02:21:55.674Z,101307.78
2022-09-05T02:24:28.313Z,101301.06
2022-09-05T02:27:07.426Z,101305.78
2022-09-05T02:29:42.870Z,101307.88
2022-09-05T02:32:14.826Z,101313.50
2022-09-05T02:34:53.713Z,101314.47
2022-09-05T02:38:31.701Z,101313.31
2022-09-05T02:45:01.505Z,101323.53
2022-09-05T02:45:20.115Z,101306.19
2022-09-05T02:46:05.651Z,101315.97
2022-09-05T02:48:48.549Z,101312.25
2022-09-05T02:57:26.459Z,101312.78
2022-09-05T02:57:27.378Z,101307.94
2022-09-05T02:57:40.449Z,101310.19
2022-09-05T03:00:07.724Z,101314.19
2022-09-05T03:02:43.921Z,101316.06
2022-09-05T03:05:19.003Z,101307.63
2022-09-05T03:08:08.717Z,101306.13
2022-09-05T03:11:05.318Z,101305.06
2022-09-05T03:14:12.406Z,101309.63
2022-09-05T03:17:25.634Z,101306.56
2022-09-05T03:20:16.718Z,101315.25
2022-09-05T03:23:09.575Z,101312.06
2022-09-05T03:26:05.179Z,101317.63
2022-09-05T03:29:17.722Z,101317.94
2022-09-05T03:32:17.738Z,101315.84
2022-09-05T03:34:56.807Z,101322.84
2022-09-05T03:37:49.116Z,101331.97
2022-09-05T03:40:37.250Z,101337.25
2022-09-05T03:43:25.843Z,101330.06
2022-09-05T03:46:03.918Z,101332.28
2022-09-05T03:52:13.126Z,101333.88
2022-09-05T03:57:11.960Z,101335.19
2022-09-05T03:57:13.047Z,101342.88
2022-09-05T03:58:55.322Z,101340.22
2022-09-05T04:02:37.359Z,101332.16
2022-09-05T04:08:17.039Z,101334.84
2022-09-05T04:08:20.442Z,101342.03
2022-09-05T04:09:53.231Z,101343.72
2022-09-05T04:12:25.228Z,101344.28
2022-09-05T04:14:56.422Z,101341.78
2022-09-05T04:17:31.134Z,101343.13
2022-09-05T04:20:02.709Z,101344.44
2022-09-05T04:22:39.628Z,101344.44
2022-09-05T04:25:13.431Z,101339.22
2022-09-05T04:27:50.250Z,101336.91
2022-09-05T04:30:38.150Z,101351.69
2022-09-05T04:33:16.255Z,101356.38
2022-09-05T04:35:53.866Z,101346.69
2022-09-05T04:38:37.878Z,101348.03
2022-09-05T04:41:09.661Z,101351.56
2022-09-05T04:43:41.653Z,101346.28
2022-09-05T04:46:18.839Z,101356.06
2022-09-05T04:48:52.306Z,101358.00
2022-09-05T04:51:44.161Z,101354.59
2022-09-05T04:54:27.630Z,101350.25
2022-09-05T04:57:13.624Z,101359.56
2022-09-05T05:02:38.109Z,101358.47
2022-09-05T05:06:11.231Z,101361.22
2022-09-05T05:06:13.497Z,101357.50
2022-09-05T05:08:31.716Z,101359.06
2022-09-05T05:17:55.226Z,101362.28
2022-09-05T05:17:58.767Z,101362.28
2022-09-05T05:18:08.797Z,101370.75
2022-09-05T05:19:57.894Z,101370.66
2022-09-05T05:22:34.111Z,101368.28
2022-09-05T05:25:01.952Z,101375.84
2022-09-05T05:27:35.431Z,101374.16
2022-09-05T05:30:05.429Z,101377.88
2022-09-05T05:32:45.691Z,101382.19
2022-09-05T05:35:16.057Z,101385.38
2022-09-05T05:37:46.639Z,101382.28
2022-09-05T05:40:21.245Z,101381.66
2022-09-05T05:42:49.017Z,101381.78
2022-09-05T05:45:18.519Z,101389.72
2022-09-05T05:47:50.468Z,101377.72
2022-09-05T05:50:33.116Z,101383.91
2022-09-05T05:53:28.994Z,101379.84
2022-09-05T05:56:29.099Z,101384.53
2022-09-05T05:59:06.498Z,101381.34
2022-09-05T06:02:02.201Z,101379.00
2022-09-05T06:04:49.259Z,101378.13
2022-09-05T06:07:23.822Z,101376.63
2022-09-05T06:14:52.690Z,101386.00
2022-09-05T06:15:00.312Z,101388.19
2022-09-05T06:16:41.247Z,101376.09
2022-09-05T06:19:46.994Z,101378.25
2022-09-05T06:22:44.082Z,101375.81
2022-09-05T06:25:47.111Z,101378.19
2022-09-05T06:28:22.134Z,101372.72
2022-09-05T06:31:29.252Z,101359.13
2022-09-05T06:33:53.111Z,101368.44
2022-09-05T06:36:43.846Z,101359.06
2022-09-05T06:39:17.540Z,101364.91
2022-09-05T06:41:58.140Z,101360.81
2022-09-05T06:44:42.439Z,101369.63
2022-09-05T06:47:23.032Z,101367.13
2022-09-05T06:50:24.107Z,101366.28
2022-09-05T06:53:35.318Z,101361.59
2022-09-05T06:56:12.719Z,101371.44
2022-09-05T06:59:34.275Z,101371.44
2022-09-05T07:02:08.499Z,101370.50
2022-09-05T07:05:23.702Z,101369.03
2022-09-05T07:07:35.723Z,101371.09
2022-09-05T07:10:34.635Z,101375.75
2022-09-05T07:13:00.440Z,101375.84
2022-09-05T07:15:37.030Z,101380.94
2022-09-05T07:18:13.536Z,101374.63
2022-09-05T07:21:16.471Z,101374.31
2022-09-05T07:24:09.021Z,101388.56
2022-09-05T07:26:53.601Z,101382.59
2022-09-05T07:29:29.552Z,101386.34
2022-09-05T07:31:58.330Z,101378.53
2022-09-05T07:34:28.379Z,101382.28
2022-09-05T07:37:14.646Z,101385.25
2022-09-05T07:39:46.482Z,101392.44
2022-09-05T07:42:17.780Z,101392.50
2022-09-05T07:44:50.153Z,101384.06
2022-09-05T07:47:22.139Z,101382.41
2022-09-05T07:50:13.937Z,101384.66
2022-09-05T07:56:53.303Z,101383.75
2022-09-05T07:56:59.518Z,101389.31
2022-09-05T07:58:21.304Z,101393.09
2022-09-05T08:00:54.505Z,101393.41
2022-09-05T08:03:26.582Z,101403.84
2022-09-05T08:05:55.413Z,101397.25
2022-09-05T08:08:25.580Z,101393.16
2022-09-05T08:11:24.317Z,101391.31
2022-09-05T08:13:53.403Z,101400.34
2022-09-05T08:16:34.795Z,101403.75
2022-09-05T08:19:12.483Z,101396.22
2022-09-05T08:21:43.851Z,101395.13
2022-09-05T08:24:14.447Z,101392.00
2022-09-05T08:26:47.051Z,101393.94
2022-09-05T08:29:26.742Z,101389.53
2022-09-05T08:31:58.034Z,101393.06
2022-09-05T08:34:44.903Z,101374.16
2022-09-05T08:37:15.167Z,101380.84
2022-09-05T08:39:50.490Z,101374.19
2022-09-05T08:42:49.349Z,101383.91
2022-09-05T08:46:44.897Z,101369.78
2022-09-05T08:48:39.878Z,101371.94
2022-09-05T08:51:25.772Z,101366.09
2022-09-05T08:54:08.827Z,101365.25
2022-09-05T08:56:41.013Z,101370.94
2022-09-05T08:59:31.667Z,101370.47
2022-09-05T09:02:47.356Z,101367.50
2022-09-05T09:05:14.185Z,101367.22
2022-09-05T09:07:51.297Z,101368.13
2022-09-05T09:10:40.351Z,101363.44
2022-09-05T09:13:20.102Z,101357.75
2022-09-05T09:15:53.028Z,101349.22
2022-09-05T09:18:21.319Z,101345.31
2022-09-05T09:20:53.803Z,101345.72
2022-09-05T09:23:41.672Z,101339.94
2022-09-05T09:26:15.748Z,101337.16
2022-09-05T09:28:51.719Z,101328.16
2022-09-05T09:31:37.100Z,101335.66
2022-09-05T09:34:18.238Z,101335.91
2022-09-05T09:37:15.248Z,101336.47
2022-09-05T09:40:02.499Z,101335.09
2022-09-05T09:42:34.315Z,101338.50
2022-09-05T09:45:29.043Z,101333.53
2022-09-05T09:48:34.743Z,101335.28
2022-09-05T09:51:15.016Z,101332.22
2022-09-05T09:53:53.090Z,101330.72
2022-09-05T09:56:55.778Z,101326.13
2022-09-05T09:59:30.925Z,101328.19
2022-09-05T10:03:37.675Z,101328.19
2022-09-05T10:10:35.371Z,101328.19
2022-09-05T10:10:55.201Z,101318.75
2022-09-05T10:14:49.519Z,101313.38
2022-09-05T10:17:33.640Z,101308.97
2022-09-05T10:20:29.495Z,101309.66
2022-09-05T10:23:11.076Z,101296.00
2022-09-05T10:25:58.249Z,101299.81
2022-09-05T10:28:38.616Z,101293.22
2022-09-05T10:33:05.262Z,101290.25
2022-09-05T10:35:17.910Z,101290.66
2022-09-05T10:37:02.625Z,101279.59
2022-09-05T10:39:31.454Z,101282.09
2022-09-05T10:42:03.612Z,101280.81
2022-09-05T10:44:38.829Z,101280.44
2022-09-05T10:47:16.688Z,101285.81
2022-09-05T10:49:45.532Z,101287.28
2022-09-05T10:52:18.115Z,101268.50
2022-09-05T10:55:15.209Z,101273.03
2022-09-05T10:57:54.285Z,101269.47
2022-09-05T11:02:20.101Z,101262.19
2022-09-05T11:03:50.180Z,101266.03
2022-09-05T11:06:25.141Z,101262.56
2022-09-05T11:09:00.653Z,101266.28
2022-09-05T11:11:34.695Z,101263.75
2022-09-05T11:14:07.196Z,101265.47
2022-09-05T11:16:50.666Z,101259.31
2022-09-05T11:19:20.115Z,101255.41
2022-09-05T11:22:10.308Z,101252.97
2022-09-05T11:24:49.508Z,101254.75
2022-09-05T11:27:27.004Z,101257.44
2022-09-05T11:29:57.367Z,101241.44
2022-09-05T11:39:38.118Z,101245.63
2022-09-05T11:39:51.484Z,101252.47
2022-09-05T11:39:53.052Z,101233.88
2022-09-05T11:42:10.027Z,101237.44
2022-09-05T11:44:44.944Z,101230.88
2022-09-05T11:48:00.900Z,101231.00
2022-09-05T11:50:47.924Z,101225.69
2022-09-05T11:53:44.643Z,101220.72
2022-09-05T11:56:45.488Z,101218.66
2022-09-05T11:59:45.005Z,101225.13
2022-09-05T12:02:43.603Z,101218.66
2022-09-05T12:08:26.227Z,101211.97
2022-09-05T12:11:05.371Z,101211.97
2022-09-05T12:13:42.450Z,101213.91
2022-09-05T12:19:22.978Z,101203.78
2022-09-05T12:22:24.010Z,101204.03
2022-09-05T12:25:27.525Z,101205.13
2022-09-05T12:29:09.759Z,101206.97
2022-09-05T12:31:07.280Z,101201.69
2022-09-05T12:36:05.165Z,101197.31
2022-09-05T12:40:56.856Z,101193.75
2022-09-05T12:41:37.137Z,101202.88
2022-09-05T12:41:41.218Z,101207.75
2022-09-05T12:42:08.440Z,101221.75
2022-09-05T12:42:28.170Z,101197.97
2022-09-05T12:45:10.253Z,101197.06
2022-09-05T12:47:55.446Z,101193.41
2022-09-05T12:50:33.406Z,101189.13
2022-09-05T12:53:06.747Z,101189.91
2022-09-05T12:55:37.367Z,101191.13
2022-09-05T13:02:58.813Z,101189.25
2022-09-05T13:03:01.347Z,101192.72
2022-09-05T13:04:20.106Z,101191.81
2022-09-05T13:06:54.823Z,101191.69
2022-09-05T13:09:30.789Z,101180.66
2022-09-05T13:14:56.092Z,101187.66
2022-09-05T13:15:20.120Z,101186.41
2022-09-05T13:17:54.219Z,101174.34
2022-09-05T13:20:34.098Z,101177.00
2022-09-05T13:23:05.495Z,101174.72
2022-09-05T13:25:36.091Z,101172.06
2022-09-05T13:28:06.303Z,101170.00
2022-09-05T13:35:42.204Z,101175.00
2022-09-05T13:38:19.616Z,101167.47
2022-09-05T13:38:30.571Z,101173.09
2022-09-05T13:39:11.100Z,101165.66
2022-09-05T13:41:45.088Z,101159.22
2022-09-05T13:44:26.495Z,101154.22
2022-09-05T13:47:02.067Z,101150.50
2022-09-05T13:49:40.383Z,101150.41
2022-09-05T13:52:20.699Z,101141.53
2022-09-05T13:54:51.723Z,101147.56
2022-09-05T13:57:37.869Z,101145.91
2022-09-05T14:00:44.979Z,101134.31
2022-09-05T14:03:43.910Z,101129.06
2022-09-05T14:06:45.592Z,101131.81
2022-09-05T14:09:40.103Z,101136.72
2022-09-05T14:12:12.564Z,101132.22
2022-09-05T14:17:51.894Z,101121.09
2022-09-05T14:20:43.027Z,101116.72
2022-09-05T14:23:13.396Z,101124.22
2022-09-05T14:25:44.163Z,101125.06
2022-09-05T14:28:14.119Z,101123.44
2022-09-05T14:33:21.172Z,101121.38
2022-09-05T14:37:40.123Z,101117.28
2022-09-05T14:38:07.914Z,101124.19
2022-09-05T14:41:16.866Z,101114.25
2022-09-05T14:44:17.423Z,101108.78
2022-09-05T14:47:02.625Z,101110.00
2022-09-05T14:50:04.151Z,101103.25
2022-09-05T14:52:35.513Z,101104.38
2022-09-05T15:02:49.947Z,101097.38
2022-09-05T15:02:56.426Z,101097.16
2022-09-05T15:06:32.995Z,101099.53
2022-09-05T15:12:14.425Z,101090.16
2022-09-05T15:12:25.815Z,101088.00
2022-09-05T15:14:42.093Z,101095.31
2022-09-05T15:17:09.758Z,101097.00
2022-09-05T15:20:06.689Z,101086.28
2022-09-05T15:22:37.311Z,101093.50
2022-09-05T15:25:17.888Z,101088.47
2022-09-05T15:27:48.108Z,101087.69
2022-09-05T15:30:21.450Z,101089.97
2022-09-05T15:32:50.777Z,101083.22
2022-09-05T15:35:42.959Z,101084.91
2022-09-05T15:38:56.289Z,101081.38
2022-09-05T15:41:35.646Z,101077.03
2022-09-05T15:44:28.389Z,101083.25
2022-09-05T15:47:02.085Z,101076.84
2022-09-05T15:49:38.450Z,101078.03
2022-09-05T15:52:12.693Z,101068.00
2022-09-05T15:54:51.207Z,101069.31
2022-09-05T15:57:25.480Z,101065.81
2022-09-05T16:00:04.690Z,101070.19
2022-09-05T16:02:39.021Z,101065.06
2022-09-05T16:10:26.668Z,101069.00
2022-09-05T16:10:36.595Z,101065.56
2022-09-05T16:12:17.118Z,101071.59
2022-09-05T16:16:40.419Z,101064.53
2022-09-05T16:23:14.637Z,101069.13
2022-09-05T16:23:32.670Z,101066.41
2022-09-05T16:23:59.316Z,101062.59
2022-09-05T16:26:44.129Z,101066.78
2022-09-05T16:29:25.923Z,101060.19
2022-09-05T16:32:37.447Z,101063.28
2022-09-05T16:35:26.341Z,101067.28
2022-09-05T16:38:01.593Z,101063.00
2022-09-05T16:40:41.276Z,101060.75
2022-09-05T16:43:19.102Z,101064.50
2022-09-05T16:45:51.134Z,101051.75
2022-09-05T16:48:37.804Z,101054.75
2022-09-05T16:51:15.756Z,101055.78
2022-09-05T16:53:50.814Z,101052.31
2022-09-05T16:56:29.965Z,101047.06
2022-09-05T16:58:59.751Z,101042.22
2022-09-05T17:01:54.738Z,101040.31
2022-09-05T17:05:03.113Z,101032.41
2022-09-05T17:07:42.579Z,101029.91
2022-09-05T17:10:12.255Z,101028.34
2022-09-05T17:12:40.451Z,101023.53
2022-09-05T17:15:11.500Z,101034.72
2022-09-05T17:18:19.152Z,101033.03
2022-09-05T17:20:48.265Z,101031.00
2022-09-05T17:26:36.979Z,101031.16
2022-09-05T17:29:31.062Z,101028.59
2022-09-05T17:29:36.091Z,101022.00
2022-09-05T17:31:58.430Z,101023.03
2022-09-05T17:34:50.285Z,101024.31
2022-09-05T17:37:34.260Z,101025.97
2022-09-05T17:40:41.824Z,101024.28
2022-09-05T17:43:28.411Z,101019.00
2022-09-05T17:46:09.473Z,101022.41
2022-09-05T17:49:18.469Z,101027.44
2022-09-05T17:52:23.867Z,101040.09
2022-09-05T17:54:53.636Z,101035.97
2022-09-05T17:57:45.076Z,101033.47
2022-09-05T18:00:49.358Z,101036.00
2022-09-05T18:04:08.379Z,101039.41
2022-09-05T18:06:54.063Z,101034.66
2022-09-05T18:09:59.047Z,101031.63
2022-09-05T18:13:13.802Z,101035.09
2022-09-05T18:16:04.632Z,101041.19
2022-09-05T18:19:28.051Z,101042.50
2022-09-05T18:21:25.587Z,101043.00
2022-09-05T18:24:00.555Z,101048.34
2022-09-05T18:26:29.330Z,101054.94
2022-09-05T18:29:05.973Z,101041.56
2022-09-05T18:31:59.162Z,101044.59
2022-09-05T18:34:44.871Z,101048.56
2022-09-05T18:37:50.999Z,101047.88
2022-09-05T18:40:39.044Z,101039.78
2022-09-05T18:43:13.316Z,101049.81
2022-09-05T18:45:52.419Z,101055.53
2022-09-05T18:48:29.836Z,101057.31
2022-09-05T18:51:15.116Z,101057.72
2022-09-05T18:53:47.459Z,101059.41
2022-09-05T18:56:22.975Z,101066.28
2022-09-05T18:59:01.524Z,101063.22
2022-09-05T19:01:43.510Z,101066.13
2022-09-05T19:04:17.598Z,101067.97
2022-09-05T19:07:09.189Z,101074.34
2022-09-05T19:09:37.995Z,101059.50
2022-09-05T19:12:33.356Z,101075.88
2022-09-05T19:14:56.342Z,101069.81
2022-09-05T19:17:32.671Z,101073.19
2022-09-05T19:20:31.934Z,101070.03
2022-09-05T19:23:09.970Z,101068.13
2022-09-05T19:25:41.684Z,101066.50
2022-09-05T19:36:44.052Z,101076.03
2022-09-05T19:36:50.762Z,101073.19
2022-09-05T19:36:54.776Z,101070.50
2022-09-05T19:37:13.586Z,101077.63
2022-09-05T19:43:01.194Z,101081.59
2022-09-05T19:47:34.959Z,101081.00
2022-09-05T19:47:42.609Z,101074.63
2022-09-05T19:48:07.594Z,101075.69
2022-09-05T19:50:37.354Z,101069.19
2022-09-05T19:53:07.004Z,101062.97
2022-09-05T19:55:36.779Z,101064.19
2022-09-05T19:58:19.715Z,101062.22
2022-09-05T20:01:00.426Z,101070.94
2022-09-05T20:03:38.335Z,101068.84
2022-09-05T20:06:15.538Z,101065.59
2022-09-05T20:09:09.241Z,101063.97
2022-09-05T20:11:45.273Z,101072.44
2022-09-05T20:14:23.050Z,101069.88
2022-09-05T20:16:52.422Z,101068.75
2022-09-05T20:19:28.522Z,101064.53
2022-09-05T20:21:59.766Z,101065.53
2022-09-05T20:24:47.786Z,101072.41
2022-09-05T20:27:17.003Z,101075.31
2022-09-05T20:29:55.567Z,101070.13
2022-09-05T20:32:39.291Z,101070.31
2022-09-05T20:36:40.154Z,101068.53
2022-09-05T20:43:15.894Z,101072.00
2022-09-05T20:43:19.941Z,101073.13
2022-09-05T20:43:57.573Z,101074.09
2022-09-05T20:51:29.510Z,101073.66
2022-09-05T20:54:04.876Z,101072.00
2022-09-05T20:54:19.064Z,101076.69
2022-09-05T20:55:09.278Z,101072.16
2022-09-05T20:57:47.917Z,101054.03
2022-09-05T21:00:17.736Z,101065.28
2022-09-05T21:02:55.824Z,101070.66
2022-09-05T21:05:29.782Z,101068.34
2022-09-05T21:08:23.189Z,101070.97
2022-09-05T21:10:55.890Z,101066.31
2022-09-05T21:13:27.299Z,101065.75
2022-09-05T21:15:55.512Z,101066.88
2022-09-05T21:18:28.640Z,101071.56
2022-09-05T21:21:06.880Z,101071.06
2022-09-05T21:24:00.914Z,101071.81
2022-09-05T21:26:47.015Z,101059.13
2022-09-05T21:29:16.406Z,101068.88
2022-09-05T21:31:46.218Z,101063.50
2022-09-05T21:34:23.682Z,101069.41
2022-09-05T21:37:03.921Z,101078.00
2022-09-05T21:39:38.087Z,101073.38
2022-09-05T21:42:39.133Z,101073.81
2022-09-05T21:47:39.162Z,101063.66
2022-09-05T21:47:53.054Z,101064.19
2022-09-05T21:50:30.761Z,101069.56
2022-09-05T21:53:21.496Z,101060.53
2022-09-05T21:59:17.321Z,101057.16
2022-09-05T21:59:18.469Z,101056.44
2022-09-05T22:01:50.977Z,101052.63
2022-09-05T22:04:16.674Z,101047.84
2022-09-05T22:06:48.404Z,101045.59
2022-09-05T22:09:17.075Z,101043.91
2022-09-05T22:11:50.017Z,101037.38
2022-09-05T22:14:19.383Z,101034.03
2022-09-05T22:16:47.612Z,101034.88
2022-09-05T22:19:17.718Z,101034.28
2022-09-05T22:21:45.457Z,101033.44
2022-09-05T22:24:13.723Z,101026.84
2022-09-05T22:27:01.514Z,101031.19
2022-09-05T22:29:34.489Z,101023.44
2022-09-05T22:32:02.186Z,101026.28
2022-09-05T22:34:29.860Z,101025.28
2022-09-05T22:36:57.506Z,101020.78
2022-09-05T22:39:36.525Z,101023.44
2022-09-05T22:42:07.580Z,101019.38
2022-09-05T22:44:40.613Z,101019.06
2022-09-05T22:47:08.907Z,101010.59
2022-09-05T22:49:37.274Z,101008.09
2022-09-05T22:52:05.847Z,101002.88
2022-09-05T22:54:33.512Z,100994.84
2022-09-05T22:57:01.106Z,100994.25
2022-09-05T22:59:28.772Z,100998.06
2022-09-05T23:01:57.738Z,100994.97
2022-09-05T23:04:25.727Z,100992.28
2022-09-05T23:06:53.552Z,100986.63
2022-09-05T23:09:21.242Z,100981.56
2022-09-05T23:11:48.957Z,100984.13
2022-09-05T23:14:16.585Z,100989.19
2022-09-05T23:16:44.168Z,100990.59
2022-09-05T23:19:13.111Z,100985.78
2022-09-05T23:21:40.824Z,100976.19
2022-09-05T23:24:08.515Z,100975.38
2022-09-05T23:26:36.090Z,100968.16
2022-09-05T23:29:03.707Z,100964.91
2022-09-05T23:31:31.451Z,100973.09
2022-09-05T23:33:59.103Z,100967.59
2022-09-05T23:36:28.387Z,100964.81
2022-09-05T23:38:56.119Z,100954.91
2022-09-05T23:41:23.740Z,100956.75
2022-09-05T23:43:51.330Z,100953.34
2022-09-05T23:46:18.993Z,100955.03
2022-09-05T23:48:46.615Z,100959.41
2022-09-05T23:51:14.600Z,100965.19
2022-09-05T23:53:43.710Z,100960.69
2022-09-05T23:56:12.166Z,100956.13
2022-09-05T23:58:39.784Z,100958.44
